Time;durP1;ratioP1;P1;durP2;ratioP2;P2;SDS_P1;SDS_P2;PMS_P1;PMS_P2;Temp;Humidity;BMP_temperature;BMP_pressure;BME280_temperature;BME280_humidity;BME280_pressure;Samples;Min_cycle;Max_cycle;Signal;HPM_P1;HPM_P2
2023/10/23 00:00:12;;;;;;;;;;;9.60;99.90;;;;;;5180340;27;20412;-41
2023/10/23 00:02:38;;;;;;;;;;;9.60;99.90;;;;;;5180172;27;19922;-41
2023/10/23 00:05:04;;;;;;;;;;;9.60;99.90;;;;;;5179896;27;20357;-40
2023/10/23 00:07:30;;;;;;;;;;;9.60;99.90;;;;;;5179811;27;19923;-40
2023/10/23 00:09:56;;;;;;;;;;;9.60;99.90;;;;;;5179788;27;19923;-40
2023/10/23 00:12:21;;;;;;;;;;;9.60;99.90;;;;;;5179676;27;19923;-41
2023/10/23 00:14:47;;;;;;;;;;;9.60;99.90;;;;;;5179871;27;19949;-41
2023/10/23 00:17:12;;;;;;;;;;;9.60;99.90;;;;;;5179818;27;19934;-41
2023/10/23 00:19:38;;;;;;;;;;;9.60;99.90;;;;;;5180045;27;20069;-40
2023/10/23 00:22:03;;;;;;;;;;;9.60;99.90;;;;;;5179705;27;20360;-40
2023/10/23 00:24:29;;;;;;;;;;;9.60;99.90;;;;;;5179636;27;19933;-41
2023/10/23 00:26:54;;;;;;;;;;;9.50;99.90;;;;;;5179067;27;19929;-41
2023/10/23 00:29:20;;;;;;;;;;;9.50;99.90;;;;;;5178462;27;19973;-40
2023/10/23 00:31:45;;;;;;;;;;;9.50;99.90;;;;;;5179651;27;20358;-41
2023/10/23 00:34:11;;;;;;;;;;;9.50;99.90;;;;;;5179468;27;20272;-41
2023/10/23 00:36:36;;;;;;;;;;;9.50;99.90;;;;;;5179475;27;19945;-40
2023/10/23 00:39:02;;;;;;;;;;;9.40;99.90;;;;;;5179291;27;20022;-40
2023/10/23 00:41:28;;;;;;;;;;;9.40;99.90;;;;;;5179275;27;20376;-41
2023/10/23 00:43:53;;;;;;;;;;;9.30;99.90;;;;;;5179550;27;19929;-41
2023/10/23 00:46:20;;;;;;;;;;;9.40;99.90;;;;;;5179264;27;19926;-40
2023/10/23 00:48:46;;;;;;;;;;;9.30;99.90;;;;;;5179329;27;20400;-40
2023/10/23 00:51:12;;;;;;;;;;;9.30;99.90;;;;;;5178914;27;20017;-40
2023/10/23 00:53:39;;;;;;;;;;;9.20;99.90;;;;;;5178949;27;20041;-40
2023/10/23 00:56:06;;;;;;;;;;;9.20;99.90;;;;;;5178874;27;19927;-41
2023/10/23 00:58:32;;;;;;;;;;;9.10;99.90;;;;;;5178795;27;19930;-41
2023/10/23 01:00:58;;;;;;;;;;;9.10;99.90;;;;;;5178948;27;19923;-40
2023/10/23 01:03:25;;;;;;;;;;;9.10;99.90;;;;;;5178999;27;19922;-40
2023/10/23 01:05:50;;;;;;;;;;;9.20;99.90;;;;;;5178839;27;19930;-40
2023/10/23 01:08:16;;;;;;;;;;;9.20;99.90;;;;;;5178576;27;19922;-40
2023/10/23 01:10:42;;;;;;;;;;;9.20;99.90;;;;;;5178596;27;19923;-41
2023/10/23 01:13:08;;;;;;;;;;;9.20;99.90;;;;;;5178729;27;19982;-40
2023/10/23 01:15:34;;;;;;;;;;;9.20;99.90;;;;;;5178669;27;19975;-40
2023/10/23 01:18:02;;;;;;;;;;;9.20;99.90;;;;;;5160258;27;19922;-40
2023/10/23 01:20:28;;;;;;;;;;;9.20;99.90;;;;;;5178570;27;19923;-40
2023/10/23 01:22:56;;;;;;;;;;;9.20;99.90;;;;;;5178549;27;20392;-40
2023/10/23 01:25:22;;;;;;;;;;;9.10;99.90;;;;;;5178265;27;20029;-41
2023/10/23 01:27:48;;;;;;;;;;;9.10;99.90;;;;;;5178790;27;19977;-40
2023/10/23 01:30:13;;;;;;;;;;;9.00;99.90;;;;;;5178401;27;19930;-40
2023/10/23 01:32:39;;;;;;;;;;;8.90;99.90;;;;;;5178088;27;19930;-40
2023/10/23 01:35:05;;;;;;;;;;;9.00;99.90;;;;;;5178187;27;19922;-40
2023/10/23 01:37:30;;;;;;;;;;;8.90;99.90;;;;;;5178110;27;19923;-40
2023/10/23 01:39:56;;;;;;;;;;;8.90;99.90;;;;;;5177870;27;19926;-40
2023/10/23 01:42:21;;;;;;;;;;;8.90;99.90;;;;;;5178123;27;19930;-41
2023/10/23 01:44:47;;;;;;;;;;;8.90;99.90;;;;;;5178088;27;19934;-40
2023/10/23 01:47:13;;;;;;;;;;;8.90;99.90;;;;;;5159736;27;19927;-40
2023/10/23 01:49:38;;;;;;;;;;;8.80;99.90;;;;;;5177786;27;20274;-41
2023/10/23 01:52:04;;;;;;;;;;;8.80;99.90;;;;;;5177984;27;19926;-40
2023/10/23 01:54:30;;;;;;;;;;;8.80;99.90;;;;;;5177902;27;19922;-41
2023/10/23 01:56:55;;;;;;;;;;;8.80;99.90;;;;;;5177595;27;20013;-40
2023/10/23 01:59:21;;;;;;;;;;;8.80;99.90;;;;;;5177780;27;19930;-40
2023/10/23 02:01:46;;;;;;;;;;;8.80;99.90;;;;;;5177696;27;19930;-40
2023/10/23 02:04:12;;;;;;;;;;;8.80;99.90;;;;;;5177643;27;20274;-40
2023/10/23 02:06:37;;;;;;;;;;;8.90;99.90;;;;;;5158929;27;19946;-42
2023/10/23 02:09:03;;;;;;;;;;;8.90;99.90;;;;;;5177624;27;19927;-40
2023/10/23 02:11:29;;;;;;;;;;;8.90;99.90;;;;;;5177318;27;19977;-40
2023/10/23 02:13:55;;;;;;;;;;;8.90;99.90;;;;;;5177439;27;20378;-40
2023/10/23 02:16:20;;;;;;;;;;;8.90;99.90;;;;;;5177508;27;19929;-41
2023/10/23 02:18:47;;;;;;;;;;;8.90;99.90;;;;;;5177404;27;20439;-40
2023/10/23 02:21:12;;;;;;;;;;;8.90;99.90;;;;;;5177287;27;20384;-41
2023/10/23 02:23:38;;;;;;;;;;;8.90;99.90;;;;;;5158738;27;19922;-40
2023/10/23 02:26:03;;;;;;;;;;;8.90;99.90;;;;;;5177046;27;19930;-40
2023/10/23 02:28:29;;;;;;;;;;;8.90;99.90;;;;;;5158681;27;20269;-40
2023/10/23 02:30:54;;;;;;;;;;;8.90;99.90;;;;;;5177203;27;19923;-41
2023/10/23 02:33:20;;;;;;;;;;;8.80;99.90;;;;;;5177036;27;19930;-40
2023/10/23 02:35:46;;;;;;;;;;;8.80;99.90;;;;;;5177172;27;19962;-40
2023/10/23 02:38:12;;;;;;;;;;;8.80;99.90;;;;;;5176977;27;20456;-40
2023/10/23 02:40:37;;;;;;;;;;;8.80;99.90;;;;;;5176772;27;19930;-40
2023/10/23 02:43:03;;;;;;;;;;;8.80;99.90;;;;;;5177015;27;19927;-40
2023/10/23 02:45:29;;;;;;;;;;;8.80;99.90;;;;;;5176650;27;20013;-40
2023/10/23 02:47:54;;;;;;;;;;;8.80;99.90;;;;;;5176672;27;19930;-40
2023/10/23 02:50:21;;;;;;;;;;;8.80;99.90;;;;;;5176485;27;19967;-40
2023/10/23 02:52:47;;;;;;;;;;;8.80;99.90;;;;;;5176583;27;19929;-40
2023/10/23 02:55:12;;;;;;;;;;;8.80;99.90;;;;;;5176736;27;20395;-41
2023/10/23 02:57:38;;;;;;;;;;;8.80;99.90;;;;;;5176873;27;20014;-40
2023/10/23 03:00:05;;;;;;;;;;;8.70;99.90;;;;;;5158045;27;20342;-40
2023/10/23 03:02:31;;;;;;;;;;;8.70;99.90;;;;;;5176686;27;19960;-40
2023/10/23 03:04:57;;;;;;;;;;;8.70;99.90;;;;;;5176418;27;19923;-40
2023/10/23 03:07:23;;;;;;;;;;;8.70;99.90;;;;;;5158284;27;19926;-40
2023/10/23 03:09:49;;;;;;;;;;;8.70;99.90;;;;;;5157885;27;19923;-40
2023/10/23 03:12:14;;;;;;;;;;;8.70;99.90;;;;;;5176642;27;19922;-40
2023/10/23 03:14:40;;;;;;;;;;;8.70;99.90;;;;;;5177187;27;20043;-40
2023/10/23 03:17:06;;;;;;;;;;;8.70;99.90;;;;;;5176597;27;19988;-40
2023/10/23 03:19:31;;;;;;;;;;;8.70;99.90;;;;;;5176400;27;20369;-40
2023/10/23 03:21:57;;;;;;;;;;;8.70;99.90;;;;;;5176552;27;19923;-41
2023/10/23 03:24:23;;;;;;;;;;;8.70;99.90;;;;;;5176473;27;19971;-40
2023/10/23 03:26:48;;;;;;;;;;;8.70;99.90;;;;;;5176993;27;19923;-40
2023/10/23 03:29:14;;;;;;;;;;;8.70;99.90;;;;;;5176434;27;20273;-40
2023/10/23 03:31:39;;;;;;;;;;;8.70;99.90;;;;;;5176490;27;19927;-41
2023/10/23 03:34:05;;;;;;;;;;;8.70;99.90;;;;;;5157782;27;19929;-40
2023/10/23 03:36:30;;;;;;;;;;;8.70;99.90;;;;;;5176347;27;19927;-40
2023/10/23 03:38:56;;;;;;;;;;;8.70;99.90;;;;;;5176248;27;19923;-40
2023/10/23 03:41:22;;;;;;;;;;;8.70;99.90;;;;;;5176405;27;19931;-40
2023/10/23 03:43:47;;;;;;;;;;;8.70;99.90;;;;;;5176358;27;19986;-40
2023/10/23 03:46:13;;;;;;;;;;;8.70;99.90;;;;;;5176173;27;20285;-40
2023/10/23 03:48:38;;;;;;;;;;;8.70;99.90;;;;;;5176206;27;19923;-40
2023/10/23 03:51:04;;;;;;;;;;;8.70;99.90;;;;;;5175709;27;19923;-40
2023/10/23 03:53:30;;;;;;;;;;;8.60;99.90;;;;;;5176150;27;20342;-41
2023/10/23 03:55:55;;;;;;;;;;;8.60;99.90;;;;;;5176455;27;20003;-40
2023/10/23 03:58:21;;;;;;;;;;;8.60;99.90;;;;;;5175954;27;19923;-40
2023/10/23 04:00:50;;;;;;;;;;;8.60;99.90;;;;;;5175993;27;19930;-40
2023/10/23 04:03:16;;;;;;;;;;;8.60;99.90;;;;;;5179005;27;20384;-40
2023/10/23 04:05:41;;;;;;;;;;;8.60;99.90;;;;;;5179917;27;19923;-40
2023/10/23 04:08:07;;;;;;;;;;;8.60;99.90;;;;;;5179911;27;19923;-40
2023/10/23 04:10:32;;;;;;;;;;;8.50;99.90;;;;;;5180005;27;19930;-40
2023/10/23 04:12:58;;;;;;;;;;;8.50;99.90;;;;;;5179936;27;19929;-40
2023/10/23 04:15:24;;;;;;;;;;;8.50;99.90;;;;;;5179822;27;19925;-40
2023/10/23 04:17:50;;;;;;;;;;;8.50;99.90;;;;;;5179972;27;20395;-40
2023/10/23 04:20:16;;;;;;;;;;;8.50;99.90;;;;;;5179697;27;20261;-40
2023/10/23 04:22:42;;;;;;;;;;;8.40;99.90;;;;;;5179543;27;20330;-40
2023/10/23 04:25:07;;;;;;;;;;;8.40;99.90;;;;;;5179729;27;19930;-40
2023/10/23 04:27:33;;;;;;;;;;;8.40;99.90;;;;;;5179702;27;19926;-40
2023/10/23 04:30:04;;;;;;;;;;;8.30;99.90;;;;;;5160867;27;20408;-40
2023/10/23 04:32:29;;;;;;;;;;;8.30;99.90;;;;;;5179449;27;19945;-40
2023/10/23 04:34:55;;;;;;;;;;;8.30;99.90;;;;;;5179443;27;19923;-40
2023/10/23 04:37:20;;;;;;;;;;;8.30;99.90;;;;;;5179027;27;19923;-40
2023/10/23 04:39:46;;;;;;;;;;;8.30;99.90;;;;;;5179233;27;20006;-40
2023/10/23 04:42:11;;;;;;;;;;;8.30;99.90;;;;;;5179200;27;19968;-40
2023/10/23 04:44:37;;;;;;;;;;;8.30;99.90;;;;;;5179211;27;19929;-40
2023/10/23 04:47:03;;;;;;;;;;;8.30;99.90;;;;;;5179149;27;19933;-40
2023/10/23 04:49:28;;;;;;;;;;;8.20;99.90;;;;;;5178978;27;19923;-40
2023/10/23 04:51:54;;;;;;;;;;;8.30;99.90;;;;;;5178740;27;20262;-40
2023/10/23 04:54:19;;;;;;;;;;;8.20;99.90;;;;;;5179070;27;19970;-41
2023/10/23 04:56:45;;;;;;;;;;;8.20;99.90;;;;;;5178937;27;19923;-40
2023/10/23 04:59:11;;;;;;;;;;;8.20;99.90;;;;;;5179011;27;20007;-40
2023/10/23 05:01:36;;;;;;;;;;;8.20;99.90;;;;;;5179086;27;20408;-40
2023/10/23 05:04:02;;;;;;;;;;;8.10;99.90;;;;;;5178923;27;19962;-40
2023/10/23 05:06:28;;;;;;;;;;;8.10;99.90;;;;;;5178904;27;19922;-40
2023/10/23 05:08:54;;;;;;;;;;;8.00;99.90;;;;;;5178570;27;19930;-40
2023/10/23 05:11:20;;;;;;;;;;;7.90;99.90;;;;;;5160325;27;20478;-40
2023/10/23 05:13:49;;;;;;;;;;;7.80;99.90;;;;;;5178084;27;19923;-40
2023/10/23 05:16:14;;;;;;;;;;;7.80;99.90;;;;;;5178543;27;19929;-40
2023/10/23 05:18:40;;;;;;;;;;;7.70;99.90;;;;;;5178293;27;19923;-40
2023/10/23 05:21:07;;;;;;;;;;;7.60;99.90;;;;;;5178239;27;20401;-40
2023/10/23 05:23:32;;;;;;;;;;;7.60;99.90;;;;;;5159970;27;19977;-40
2023/10/23 05:25:58;;;;;;;;;;;7.50;99.90;;;;;;5178224;27;19973;-40
2023/10/23 05:28:25;;;;;;;;;;;7.50;99.90;;;;;;5178114;27;19923;-40
2023/10/23 05:30:51;;;;;;;;;;;7.50;99.90;;;;;;5178127;27;19922;-40
2023/10/23 05:33:16;;;;;;;;;;;7.40;99.90;;;;;;5178339;27;19930;-40
2023/10/23 05:35:42;;;;;;;;;;;7.40;99.90;;;;;;5178076;27;19962;-40
2023/10/23 05:38:08;;;;;;;;;;;7.30;99.90;;;;;;5178250;27;19930;-40
2023/10/23 05:40:33;;;;;;;;;;;7.30;99.90;;;;;;5178179;27;19923;-40
2023/10/23 05:42:59;;;;;;;;;;;7.30;99.90;;;;;;5178205;27;20005;-40
2023/10/23 05:45:24;;;;;;;;;;;7.20;99.90;;;;;;5178084;27;19927;-40
2023/10/23 05:47:50;;;;;;;;;;;7.20;99.90;;;;;;5177941;27;20026;-40
2023/10/23 05:50:15;;;;;;;;;;;7.20;99.90;;;;;;5177799;27;19923;-40
2023/10/23 05:52:41;;;;;;;;;;;7.10;99.90;;;;;;5178012;27;19923;-40
2023/10/23 05:55:08;;;;;;;;;;;7.10;99.90;;;;;;5177912;27;19923;-40
2023/10/23 05:57:34;;;;;;;;;;;7.10;99.90;;;;;;5177808;27;19930;-40
2023/10/23 05:59:59;;;;;;;;;;;7.00;99.90;;;;;;5177659;27;19923;-40
2023/10/23 06:02:25;;;;;;;;;;;7.00;99.90;;;;;;5177815;27;19969;-40
2023/10/23 06:04:51;;;;;;;;;;;7.00;99.90;;;;;;5177711;27;19923;-40
2023/10/23 06:07:16;;;;;;;;;;;6.90;99.90;;;;;;5177884;27;20365;-40
2023/10/23 06:09:42;;;;;;;;;;;6.90;99.90;;;;;;5177589;27;20276;-40
2023/10/23 06:12:09;;;;;;;;;;;6.90;99.90;;;;;;5177652;27;19923;-40
2023/10/23 06:14:35;;;;;;;;;;;6.90;99.90;;;;;;5177507;27;19978;-40
2023/10/23 06:17:00;;;;;;;;;;;6.90;99.90;;;;;;5177451;27;19931;-40
2023/10/23 06:19:26;;;;;;;;;;;6.80;99.90;;;;;;5177424;27;20015;-40
2023/10/23 06:21:52;;;;;;;;;;;6.70;99.90;;;;;;5177139;27;19922;-40
2023/10/23 06:24:17;;;;;;;;;;;6.60;99.90;;;;;;5177316;27;19930;-40
2023/10/23 06:26:43;;;;;;;;;;;6.50;99.90;;;;;;5176356;27;19927;-40
2023/10/23 06:29:09;;;;;;;;;;;6.40;99.90;;;;;;5177433;27;20373;-40
2023/10/23 06:31:34;;;;;;;;;;;6.40;99.90;;;;;;5177260;27;19923;-40
2023/10/23 06:34:00;;;;;;;;;;;6.40;99.90;;;;;;5176885;27;19966;-41
2023/10/23 06:36:25;;;;;;;;;;;6.40;99.90;;;;;;5176949;27;19966;-40
2023/10/23 06:38:51;;;;;;;;;;;6.40;99.90;;;;;;5177117;27;19923;-40
2023/10/23 06:41:16;;;;;;;;;;;6.40;99.90;;;;;;5177032;27;19930;-40
2023/10/23 06:43:42;;;;;;;;;;;6.40;99.90;;;;;;5158650;27;20406;-40
2023/10/23 06:46:08;;;;;;;;;;;6.40;99.90;;;;;;5158396;27;19923;-40
2023/10/23 06:48:33;;;;;;;;;;;6.50;99.90;;;;;;5176761;27;19927;-40
2023/10/23 06:50:59;;;;;;;;;;;6.50;99.90;;;;;;5176568;27;19980;-40
2023/10/23 06:53:25;;;;;;;;;;;6.50;99.90;;;;;;5176938;27;19923;-40
2023/10/23 06:55:54;;;;;;;;;;;6.50;99.90;;;;;;5176692;27;20013;-40
2023/10/23 06:58:20;;;;;;;;;;;6.50;99.90;;;;;;5176768;27;20262;-40
2023/10/23 07:00:46;;;;;;;;;;;6.50;99.90;;;;;;5176704;27;19923;-40
2023/10/23 07:03:12;;;;;;;;;;;6.50;99.90;;;;;;5176554;27;19922;-41
2023/10/23 07:05:39;;;;;;;;;;;6.50;99.90;;;;;;5176608;27;19981;-40
2023/10/23 07:08:04;;;;;;;;;;;6.50;99.90;;;;;;5176725;27;19930;-40
2023/10/23 07:10:33;;;;;;;;;;;6.60;99.90;;;;;;5158018;27;20297;-40
2023/10/23 07:12:59;;;;;;;;;;;6.60;99.90;;;;;;5176427;27;19923;-40
2023/10/23 07:15:24;;;;;;;;;;;6.70;99.90;;;;;;5176617;27;20002;-40
2023/10/23 07:17:50;;;;;;;;;;;6.80;99.90;;;;;;5176370;27;19979;-40
2023/10/23 07:20:17;;;;;;;;;;;6.90;99.90;;;;;;5176218;27;20015;-40
2023/10/23 07:22:43;;;;;;;;;;;6.90;99.90;;;;;;5176368;27;19922;-38
2023/10/23 07:25:09;;;;;;;;;;;6.90;99.90;;;;;;5176507;27;19983;-41
2023/10/23 07:27:35;;;;;;;;;;;7.00;99.90;;;;;;5176462;27;19923;-41
2023/10/23 07:30:01;;;;;;;;;;;7.10;99.90;;;;;;5176343;27;19929;-41
2023/10/23 07:32:26;;;;;;;;;;;7.10;99.90;;;;;;5176243;27;19923;-43
2023/10/23 07:34:52;;;;;;;;;;;7.20;99.90;;;;;;5176227;27;19930;-42
2023/10/23 07:37:18;;;;;;;;;;;7.20;99.90;;;;;;5177708;27;20319;-42
2023/10/23 07:39:47;;;;;;;;;;;7.30;99.90;;;;;;5180559;27;20021;-42
2023/10/23 07:42:13;;;;;;;;;;;7.30;99.90;;;;;;5180386;27;20021;-42
2023/10/23 07:44:38;;;;;;;;;;;7.40;99.90;;;;;;5180151;27;20006;-42
2023/10/23 07:47:04;;;;;;;;;;;7.40;99.90;;;;;;5180350;27;19922;-42
2023/10/23 07:49:29;;;;;;;;;;;7.50;99.90;;;;;;5180346;27;19926;-42
2023/10/23 07:51:55;;;;;;;;;;;7.50;99.90;;;;;;5180684;27;19930;-42
2023/10/23 07:54:21;;;;;;;;;;;7.60;99.90;;;;;;5180673;27;19946;-42
2023/10/23 07:56:46;;;;;;;;;;;7.70;99.90;;;;;;5180204;27;19967;-43
2023/10/23 07:59:13;;;;;;;;;;;7.70;99.90;;;;;;5180103;27;19927;-42
2023/10/23 08:01:39;;;;;;;;;;;7.80;99.90;;;;;;5179984;27;19922;-43
2023/10/23 08:04:04;;;;;;;;;;;7.90;99.90;;;;;;5180392;27;19990;-43
2023/10/23 08:06:30;;;;;;;;;;;7.90;99.90;;;;;;5180681;27;19923;-43
2023/10/23 08:08:57;;;;;;;;;;;8.00;99.90;;;;;;5179865;27;20377;-42
2023/10/23 08:11:22;;;;;;;;;;;8.00;99.90;;;;;;5179986;27;20021;-42
2023/10/23 08:13:48;;;;;;;;;;;8.10;99.90;;;;;;5179734;27;19969;-42
2023/10/23 08:16:13;;;;;;;;;;;8.10;99.90;;;;;;5179686;27;19922;-42
2023/10/23 08:18:39;;;;;;;;;;;8.20;99.90;;;;;;5162224;27;20398;-42
2023/10/23 08:21:12;;;;;;;;;;;8.20;99.90;;;;;;5179825;27;19923;-42
2023/10/23 08:23:38;;;;;;;;;;;8.30;99.90;;;;;;5180098;27;19923;-42
2023/10/23 08:26:03;;;;;;;;;;;8.30;99.90;;;;;;5179591;27;20292;-42
2023/10/23 08:28:29;;;;;;;;;;;8.40;99.90;;;;;;5179515;27;20269;-43
2023/10/23 08:30:55;;;;;;;;;;;8.40;99.90;;;;;;5179543;27;20018;-42
2023/10/23 08:33:20;;;;;;;;;;;8.50;99.90;;;;;;5179573;27;19983;-43
2023/10/23 08:35:46;;;;;;;;;;;8.50;99.90;;;;;;5161158;27;19945;-43
2023/10/23 08:38:11;;;;;;;;;;;8.60;99.90;;;;;;5179449;27;19929;-42
2023/10/23 08:40:37;;;;;;;;;;;8.60;99.90;;;;;;5179476;27;19929;-42
2023/10/23 08:43:03;;;;;;;;;;;8.70;99.90;;;;;;5179534;27;19930;-42
2023/10/23 08:45:28;;;;;;;;;;;8.70;99.90;;;;;;5179128;27;19923;-43
2023/10/23 08:47:54;;;;;;;;;;;8.80;99.90;;;;;;5160653;27;19929;-42
2023/10/23 08:50:20;;;;;;;;;;;8.90;99.90;;;;;;5156029;27;19923;-42
2023/10/23 08:52:49;;;;;;;;;;;8.90;99.90;;;;;;5158142;27;19930;-42
2023/10/23 08:55:16;;;;;;;;;;;9.00;99.90;;;;;;5158434;27;20331;-42
2023/10/23 08:57:45;;;;;;;;;;;9.00;99.90;;;;;;5157954;27;20378;-42
2023/10/23 09:00:11;;;;;;;;;;;9.10;99.90;;;;;;5157981;27;19930;-43
2023/10/23 09:02:37;;;;;;;;;;;9.10;99.90;;;;;;5157598;27;20306;-42
2023/10/23 09:05:03;;;;;;;;;;;9.20;99.90;;;;;;5158175;27;20095;-43
2023/10/23 09:07:28;;;;;;;;;;;9.20;99.90;;;;;;5157926;27;19923;-42
2023/10/23 09:09:59;;;;;;;;;;;9.30;99.90;;;;;;5157761;27;19946;-42
2023/10/23 09:12:34;;;;;;;;;;;9.30;99.90;;;;;;5157957;27;19930;-42
2023/10/23 09:15:20;;;;;;;;;;;9.40;99.90;;;;;;5157639;27;19923;-43
2023/10/23 09:17:46;;;;;;;;;;;9.40;99.90;;;;;;5157816;27;19923;-43
2023/10/23 09:20:26;;;;;;;;;;;9.50;99.90;;;;;;5157790;27;20009;-42
2023/10/23 09:22:52;;;;;;;;;;;9.60;99.90;;;;;;5157622;27;19923;-43
2023/10/23 09:25:22;;;;;;;;;;;9.60;99.90;;;;;;5157372;27;19927;-43
2023/10/23 09:27:48;;;;;;;;;;;9.70;99.90;;;;;;5157593;27;20017;-43
2023/10/23 09:30:20;;;;;;;;;;;9.70;99.90;;;;;;5157395;27;20038;-42
2023/10/23 09:32:48;;;;;;;;;;;9.80;99.90;;;;;;5157608;27;20013;-43
2023/10/23 09:35:14;;;;;;;;;;;9.80;99.90;;;;;;5157460;27;19967;-42
2023/10/23 09:37:40;;;;;;;;;;;9.90;99.90;;;;;;5157206;27;19922;-42
2023/10/23 09:40:08;;;;;;;;;;;9.90;99.90;;;;;;5157374;27;19993;-43
2023/10/23 09:42:34;;;;;;;;;;;10.00;99.90;;;;;;5157288;27;20048;-43
2023/10/23 09:45:00;;;;;;;;;;;10.10;99.90;;;;;;5157226;27;19988;-43
2023/10/23 09:47:28;;;;;;;;;;;10.10;99.90;;;;;;5157254;27;19931;-42
2023/10/23 09:49:53;;;;;;;;;;;10.20;99.90;;;;;;5159381;27;19931;-43
2023/10/23 09:52:22;;;;;;;;;;;10.20;99.90;;;;;;5177901;27;19945;-43
2023/10/23 09:54:49;;;;;;;;;;;10.30;99.90;;;;;;5177926;27;19933;-43
2023/10/23 09:57:17;;;;;;;;;;;10.40;99.90;;;;;;5178024;27;20369;-42
2023/10/23 09:59:44;;;;;;;;;;;10.40;99.90;;;;;;5177765;27;19923;-42
2023/10/23 10:02:11;;;;;;;;;;;10.50;99.90;;;;;;5177741;27;19975;-43
2023/10/23 10:04:44;;;;;;;;;;;10.50;99.90;;;;;;5177613;27;20433;-43
2023/10/23 10:07:11;;;;;;;;;;;10.50;99.90;;;;;;5177547;27;20507;-42
2023/10/23 10:09:37;;;;;;;;;;;10.50;99.90;;;;;;5177633;27;19970;-44
2023/10/23 10:12:03;;;;;;;;;;;10.60;99.90;;;;;;5177619;27;19946;-42
2023/10/23 10:14:30;;;;;;;;;;;10.60;99.90;;;;;;5177463;27;19923;-42
2023/10/23 10:16:57;;;;;;;;;;;10.70;99.90;;;;;;5177439;27;20401;-42
2023/10/23 10:19:23;;;;;;;;;;;10.70;99.90;;;;;;5177289;27;19978;-43
2023/10/23 10:21:51;;;;;;;;;;;10.70;99.90;;;;;;5177165;27;19922;-43
2023/10/23 10:24:18;;;;;;;;;;;10.70;99.90;;;;;;5177177;27;20392;-42
2023/10/23 10:26:44;;;;;;;;;;;10.80;99.90;;;;;;5177365;27;19933;-43
2023/10/23 10:29:10;;;;;;;;;;;10.90;99.90;;;;;;5177148;27;19976;-43
2023/10/23 10:32:14;;;;;;;;;;;10.90;99.90;;;;;;5177233;27;19930;-42
2023/10/23 10:34:45;;;;;;;;;;;11.00;99.90;;;;;;5072121;28;19971;-43
2023/10/23 10:37:11;;;;;;;;;;;11.10;99.90;;;;;;5072104;28;19931;-43
2023/10/23 10:39:46;;;;;;;;;;;11.20;99.90;;;;;;5124920;27;19922;-43
2023/10/23 10:42:15;;;;;;;;;;;11.30;99.90;;;;;;5158655;27;19923;-42
2023/10/23 10:44:50;;;;;;;;;;;11.30;99.90;;;;;;5177364;27;19923;-43
2023/10/23 10:47:16;;;;;;;;;;;11.40;99.90;;;;;;5176964;27;19929;-42
2023/10/23 10:49:45;;;;;;;;;;;11.50;99.90;;;;;;5176527;27;19923;-43
2023/10/23 10:52:36;;;;;;;;;;;11.60;99.90;;;;;;5176970;27;19923;-43
2023/10/23 10:55:05;;;;;;;;;;;11.70;99.90;;;;;;5176888;27;19922;-42
2023/10/23 10:57:31;;;;;;;;;;;11.70;99.90;;;;;;5176900;27;20342;-43
2023/10/23 10:59:59;;;;;;;;;;;11.80;99.90;;;;;;5176816;27;19973;-43
2023/10/23 11:02:25;;;;;;;;;;;11.90;99.90;;;;;;5176784;27;20403;-43
2023/10/23 11:04:51;;;;;;;;;;;11.90;99.90;;;;;;5176592;27;19962;-43
2023/10/23 11:07:20;;;;;;;;;;;12.00;99.90;;;;;;5176733;27;20005;-43
2023/10/23 11:09:46;;;;;;;;;;;12.00;99.90;;;;;;5176503;27;19930;-43
2023/10/23 11:12:11;;;;;;;;;;;12.00;99.90;;;;;;5176173;27;19923;-42
2023/10/23 11:14:38;;;;;;;;;;;12.10;99.90;;;;;;5176764;27;19923;-43
2023/10/23 11:17:05;;;;;;;;;;;12.10;99.90;;;;;;5176825;27;19926;-43
2023/10/23 11:19:31;;;;;;;;;;;12.10;99.90;;;;;;5176515;27;19923;-43
2023/10/23 11:22:09;;;;;;;;;;;12.10;99.90;;;;;;5176549;27;19974;-43
2023/10/23 11:24:34;;;;;;;;;;;12.20;99.90;;;;;;5176720;27;19923;-43
2023/10/23 11:27:00;;;;;;;;;;;12.20;99.90;;;;;;5176660;27;19945;-43
2023/10/23 11:29:25;;;;;;;;;;;12.20;99.90;;;;;;5176436;27;19923;-43
2023/10/23 11:31:52;;;;;;;;;;;12.30;99.90;;;;;;5176503;27;19976;-43
2023/10/23 11:34:18;;;;;;;;;;;12.30;99.90;;;;;;5176379;27;20009;-43
2023/10/23 11:36:45;;;;;;;;;;;12.40;99.90;;;;;;5176227;27;20013;-42
2023/10/23 11:39:13;;;;;;;;;;;12.40;99.90;;;;;;5176439;27;19926;-43
2023/10/23 11:41:39;;;;;;;;;;;12.50;99.90;;;;;;5176440;27;20285;-43
2023/10/23 11:44:05;;;;;;;;;;;12.50;99.90;;;;;;5176324;27;20025;-44
2023/10/23 11:46:31;;;;;;;;;;;12.60;99.90;;;;;;5177005;27;19958;-43
2023/10/23 11:48:56;;;;;;;;;;;12.60;99.90;;;;;;5157871;27;20330;-43
2023/10/23 11:51:22;;;;;;;;;;;12.60;99.90;;;;;;5175935;27;19923;-43
2023/10/23 11:53:48;;;;;;;;;;;12.70;99.90;;;;;;5176353;27;20342;-43
2023/10/23 11:56:13;;;;;;;;;;;12.70;99.90;;;;;;5176286;27;19933;-43
2023/10/23 11:58:39;;;;;;;;;;;12.70;99.90;;;;;;5176198;27;19923;-43
2023/10/23 12:01:05;;;;;;;;;;;12.70;99.90;;;;;;5176196;27;19930;-43
2023/10/23 12:03:30;;;;;;;;;;;12.70;99.90;;;;;;5175919;27;19930;-43
2023/10/23 12:05:56;;;;;;;;;;;12.70;99.90;;;;;;5176104;27;19930;-43
2023/10/23 12:08:21;;;;;;;;;;;12.70;99.90;;;;;;5157638;27;20026;-43
2023/10/23 12:10:47;;;;;;;;;;;12.80;99.90;;;;;;5176121;27;19930;-43
2023/10/23 12:13:13;;;;;;;;;;;12.80;99.90;;;;;;5176181;27;19974;-43
2023/10/23 12:15:38;;;;;;;;;;;12.80;99.90;;;;;;5175857;27;19923;-42
2023/10/23 12:18:04;;;;;;;;;;;12.90;99.90;;;;;;5175892;27;19923;-43
2023/10/23 12:20:30;;;;;;;;;;;12.90;99.90;;;;;;5175815;27;19930;-43
2023/10/23 12:22:55;;;;;;;;;;;12.90;99.90;;;;;;5176286;27;19929;-42
2023/10/23 12:25:21;;;;;;;;;;;12.90;99.90;;;;;;5178882;27;20361;-42
2023/10/23 12:27:47;;;;;;;;;;;12.90;99.90;;;;;;5179706;27;19943;-43
2023/10/23 12:30:14;;;;;;;;;;;12.90;99.90;;;;;;5179555;27;19974;-42
2023/10/23 12:32:40;;;;;;;;;;;12.90;99.90;;;;;;5179677;27;19923;-42
2023/10/23 12:35:06;;;;;;;;;;;12.80;99.90;;;;;;5179240;27;20007;-42
2023/10/23 12:37:32;;;;;;;;;;;12.80;99.90;;;;;;5179535;27;19927;-42
2023/10/23 12:40:00;;;;;;;;;;;12.80;99.90;;;;;;5179410;27;19923;-42
2023/10/23 12:42:26;;;;;;;;;;;12.80;99.90;;;;;;5179352;27;20017;-42
2023/10/23 12:44:52;;;;;;;;;;;12.80;99.90;;;;;;5179400;27;19968;-42
2023/10/23 12:47:18;;;;;;;;;;;12.70;99.90;;;;;;5179212;27;20370;-42
2023/10/23 12:49:44;;;;;;;;;;;12.80;99.90;;;;;;5160258;27;19971;-42
2023/10/23 12:52:10;;;;;;;;;;;12.70;99.90;;;;;;5179231;27;19930;-42
2023/10/23 12:54:36;;;;;;;;;;;12.70;99.90;;;;;;5179249;27;19929;-42
2023/10/23 12:57:03;;;;;;;;;;;12.70;99.90;;;;;;5179032;27;19922;-42
2023/10/23 12:59:33;;;;;;;;;;;12.70;99.90;;;;;;5178980;27;19952;-42
2023/10/23 13:01:59;;;;;;;;;;;12.70;99.90;;;;;;5178591;27;19929;-42
2023/10/23 13:04:24;;;;;;;;;;;12.70;99.90;;;;;;5178636;27;20296;-44
2023/10/23 13:06:50;;;;;;;;;;;12.70;99.90;;;;;;5179023;27;19975;-42
2023/10/23 13:09:16;;;;;;;;;;;12.80;99.90;;;;;;5178787;27;19929;-42
2023/10/23 13:11:42;;;;;;;;;;;12.70;99.90;;;;;;5178852;27;19923;-42
2023/10/23 13:14:07;;;;;;;;;;;12.70;99.90;;;;;;5178643;27;19923;-42
2023/10/23 13:16:33;;;;;;;;;;;12.70;99.90;;;;;;5178708;27;20381;-42
2023/10/23 13:18:59;;;;;;;;;;;12.80;99.90;;;;;;5178411;27;19974;-42
2023/10/23 13:21:24;;;;;;;;;;;12.80;99.90;;;;;;5178760;27;19929;-43
2023/10/23 13:23:50;;;;;;;;;;;12.80;99.90;;;;;;5178628;27;19922;-41
2023/10/23 13:26:17;;;;;;;;;;;12.80;99.90;;;;;;5178514;27;19923;-42
2023/10/23 13:28:43;;;;;;;;;;;12.80;99.90;;;;;;5178337;27;20394;-42
2023/10/23 13:31:08;;;;;;;;;;;12.80;99.90;;;;;;5178270;27;20001;-42
2023/10/23 13:33:34;;;;;;;;;;;12.80;99.90;;;;;;5159947;27;20399;-42
2023/10/23 13:35:59;;;;;;;;;;;12.80;99.90;;;;;;5177829;27;19929;-42
2023/10/23 13:38:25;;;;;;;;;;;12.80;99.90;;;;;;5178272;27;19975;-42
2023/10/23 13:40:51;;;;;;;;;;;12.80;99.90;;;;;;5160264;27;19922;-42
2023/10/23 13:43:17;;;;;;;;;;;12.70;99.90;;;;;;5178112;27;19930;-42
2023/10/23 13:45:43;;;;;;;;;;;12.80;99.90;;;;;;5178127;27;19985;-42
2023/10/23 13:48:08;;;;;;;;;;;12.70;99.90;;;;;;5177813;27;19967;-42
2023/10/23 13:50:34;;;;;;;;;;;12.70;99.90;;;;;;5177966;27;19923;-42
2023/10/23 13:53:00;;;;;;;;;;;12.70;99.90;;;;;;5159672;27;19946;-42
2023/10/23 13:55:25;;;;;;;;;;;12.70;99.90;;;;;;5177907;27;19922;-42
2023/10/23 13:57:51;;;;;;;;;;;12.60;99.90;;;;;;5177876;27;19966;-42
2023/10/23 14:00:17;;;;;;;;;;;12.60;99.90;;;;;;5177770;27;20432;-42
2023/10/23 14:02:42;;;;;;;;;;;12.60;99.90;;;;;;5177574;27;19923;-42
2023/10/23 14:05:08;;;;;;;;;;;12.60;99.90;;;;;;5177677;27;19923;-42
2023/10/23 14:07:35;;;;;;;;;;;12.60;99.90;;;;;;5177634;27;19923;-42
2023/10/23 14:10:01;;;;;;;;;;;12.60;99.90;;;;;;5177565;27;20350;-42
2023/10/23 14:12:26;;;;;;;;;;;12.60;99.90;;;;;;5159371;27;19922;-42
2023/10/23 14:14:52;;;;;;;;;;;12.60;99.90;;;;;;5177671;27;19973;-42
2023/10/23 14:17:17;;;;;;;;;;;12.60;99.90;;;;;;5177474;27;19926;-42
2023/10/23 14:19:43;;;;;;;;;;;12.50;99.90;;;;;;5177547;27;19923;-42